Time;durP1;ratioP1;P1;durP2;ratioP2;P2;SDS_P1;SDS_P2;PMS_P1;PMS_P2;Temp;Humidity;BMP_temperature;BMP_pressure;BME280_temperature;BME280_humidity;BME280_pressure;Samples;Min_cycle;Max_cycle;Signal;HPM_P1;HPM_P2
2023/02/20 00:02:31;;;;;;;0.37;0.37;;;;;8.70;97461.00;;;;5069283;28;20200;-85
2023/02/20 00:05:21;;;;;;;0.40;0.33;;;;;8.40;97459.00;;;;5080251;28;20608;-85
2023/02/20 00:08:10;;;;;;;0.57;0.57;;;;;8.10;97454.00;;;;5064160;28;20603;-85
2023/02/20 00:10:59;;;;;;;0.60;0.60;;;;;8.60;97463.00;;;;5069714;28;20665;-85
2023/02/20 00:13:49;;;;;;;0.40;0.40;;;;;8.70;97478.00;;;;5070713;28;20218;-85
2023/02/20 00:16:38;;;;;;;0.40;0.40;;;;;8.40;97480.00;;;;5068992;28;20265;-85
2023/02/20 00:19:27;;;;;;;0.40;0.40;;;;;8.10;97491.00;;;;5070082;28;20234;-85
2023/02/20 00:22:18;;;;;;;0.63;0.47;;;;;8.20;97492.00;;;;5068734;28;20629;-85
2023/02/20 00:25:07;;;;;;;0.50;0.50;;;;;8.30;97482.00;;;;5079621;28;20230;-85
2023/02/20 00:27:57;;;;;;;0.83;0.60;;;;;8.30;97489.00;;;;5060791;28;20215;-85
2023/02/20 00:30:46;;;;;;;0.60;0.60;;;;;8.20;97481.00;;;;5064729;28;20200;-84
2023/02/20 00:33:35;;;;;;;0.50;0.50;;;;;7.80;97493.00;;;;5063469;28;20204;-85
2023/02/20 00:36:24;;;;;;;1.30;0.60;;;;;8.00;97489.00;;;;5060020;28;20200;-86
2023/02/20 00:39:15;;;;;;;1.20;0.50;;;;;8.60;97499.00;;;;5058334;28;20682;-85
2023/02/20 00:42:04;;;;;;;0.63;0.63;;;;;8.50;97490.00;;;;5060930;28;20203;-85
2023/02/20 00:44:53;;;;;;;0.67;0.43;;;;;8.30;97487.00;;;;5060376;28;20689;-85
2023/02/20 00:47:42;;;;;;;1.03;0.57;;;;;8.10;97502.00;;;;5059768;28;20197;-85
2023/02/20 00:50:31;;;;;;;0.43;0.43;;;;;8.60;97509.00;;;;5060502;28;20690;-85
2023/02/20 00:53:20;;;;;;;1.80;0.70;;;;;8.20;97501.00;;;;5060676;28;20199;-84
2023/02/20 00:56:10;;;;;;;0.60;0.50;;;;;8.40;97505.00;;;;5058835;28;20684;-85
2023/02/20 00:58:59;;;;;;;0.50;0.50;;;;;8.70;97503.00;;;;5060606;28;20220;-84
2023/02/20 01:01:49;;;;;;;0.40;0.40;;;;;8.70;97491.00;;;;5063166;28;20561;-84
2023/02/20 01:04:38;;;;;;;1.20;0.67;;;;;8.40;97490.00;;;;5061794;28;20200;-85
2023/02/20 01:07:27;;;;;;;0.40;0.40;;;;;8.50;97496.00;;;;5078537;28;20202;-84
2023/02/20 01:10:17;;;;;;;0.60;0.50;;;;;7.90;97497.00;;;;5072747;28;20235;-85
2023/02/20 01:13:08;;;;;;;0.77;0.40;;;;;8.40;97502.00;;;;5073262;28;20204;-85
2023/02/20 01:15:57;;;;;;;0.53;0.53;;;;;8.60;97501.00;;;;5072398;28;20196;-85
2023/02/20 01:18:48;;;;;;;0.73;0.70;;;;;8.80;97509.00;;;;5071933;28;20215;-85
2023/02/20 01:21:37;;;;;;;0.43;0.43;;;;;8.80;97505.00;;;;5068775;28;20200;-85
2023/02/20 01:24:26;;;;;;;1.23;0.50;;;;;7.80;97510.00;;;;5072445;28;20657;-85
2023/02/20 01:27:15;;;;;;;2.00;0.60;;;;;7.90;97500.00;;;;5063738;28;20231;-84
2023/02/20 01:30:07;;;;;;;0.53;0.50;;;;;8.50;97501.00;;;;5054124;28;20598;-85
2023/02/20 01:32:56;;;;;;;0.50;0.50;;;;;8.70;97514.00;;;;5067119;28;20208;-84
2023/02/20 01:35:45;;;;;;;0.83;0.60;;;;;8.30;97513.00;;;;5082026;28;20200;-85
2023/02/20 01:38:34;;;;;;;0.57;0.50;;;;;7.40;97497.00;;;;5092619;28;20230;-84
2023/02/20 01:41:24;;;;;;;0.70;0.50;;;;;7.60;97499.00;;;;5094568;28;20253;-84
2023/02/20 01:44:19;;;;;;;0.70;0.60;;;;;8.00;97501.00;;;;5095010;28;20513;-84
2023/02/20 01:47:11;;;;;;;0.60;0.60;;;;;7.90;97513.00;;;;5093718;28;20223;-85
2023/02/20 01:50:02;;;;;;;0.57;0.57;;;;;8.60;97526.00;;;;5093393;28;20222;-84
2023/02/20 01:52:54;;;;;;;0.80;0.50;;;;;8.70;97510.00;;;;5093093;28;20390;-85
2023/02/20 01:55:46;;;;;;;0.40;0.40;;;;;8.50;97504.00;;;;5070893;28;20204;-85
2023/02/20 01:58:38;;;;;;;0.50;0.50;;;;;7.90;97516.00;;;;5053130;28;20220;-85
2023/02/20 02:01:27;;;;;;;0.57;0.40;;;;;8.50;97495.00;;;;5055937;28;20204;-85
2023/02/20 02:04:18;;;;;;;0.80;0.40;;;;;8.40;97494.00;;;;5072549;28;20199;-85
2023/02/20 02:07:07;;;;;;;0.40;0.40;;;;;8.00;97503.00;;;;5068918;28;20215;-85
2023/02/20 02:09:58;;;;;;;0.33;0.33;;;;;7.80;97502.00;;;;5072417;28;20245;-85
2023/02/20 02:12:49;;;;;;;1.10;1.00;;;;;8.10;97505.00;;;;5072707;28;20300;-84
2023/02/20 02:15:38;;;;;;;0.50;0.50;;;;;8.60;97505.00;;;;5072976;28;20262;-85
2023/02/20 02:18:43;;;;;;;1.80;0.60;;;;;8.60;97509.00;;;;5071973;28;20289;-85
2023/02/20 02:21:50;;;;;;;1.37;0.70;;;;;8.40;97510.00;;;;5068101;28;20211;-85
2023/02/20 02:25:19;;;;;;;0.77;0.60;;;;;7.90;97502.00;;;;5073321;28;20200;-84
2023/02/20 02:28:50;;;;;;;1.30;0.60;;;;;7.90;97490.00;;;;5072308;28;20744;-84
2023/02/20 02:32:15;;;;;;;0.57;0.57;;;;;7.50;97498.00;;;;5072765;28;20239;-87
2023/02/20 02:35:28;;;;;;;0.30;0.30;;;;;7.90;97483.00;;;;5067848;28;20192;-84
2023/02/20 02:38:23;;;;;;;0.53;0.53;;;;;8.30;97485.00;;;;5072556;28;20223;-84
2023/02/20 02:41:18;;;;;;;0.80;0.70;;;;;8.40;97489.00;;;;5073009;28;20724;-84
2023/02/20 02:44:11;;;;;;;0.30;0.30;;;;;8.50;97490.00;;;;5072327;28;20677;-84
2023/02/20 02:47:03;;;;;;;0.50;0.50;;;;;8.30;97511.00;;;;5071739;28;20234;-84
2023/02/20 02:49:58;;;;;;;0.50;0.40;;;;;8.50;97505.00;;;;5064942;28;20585;-84
2023/02/20 02:52:48;;;;;;;1.03;0.93;;;;;8.60;97513.00;;;;5052839;28;20201;-84
2023/02/20 02:55:38;;;;;;;0.53;0.53;;;;;8.40;97518.00;;;;5053672;28;20204;-84
2023/02/20 02:58:27;;;;;;;4.53;0.57;;;;;8.70;97532.00;;;;5051599;28;20728;-85
2023/02/20 03:01:17;;;;;;;0.73;0.43;;;;;8.70;97533.00;;;;5053707;28;20333;-84
2023/02/20 03:04:09;;;;;;;0.70;0.60;;;;;8.60;97528.00;;;;5071777;28;20214;-85
2023/02/20 03:07:02;;;;;;;0.57;0.57;;;;;8.60;97535.00;;;;5057583;28;20341;-84
2023/02/20 03:09:53;;;;;;;0.83;0.80;;;;;8.60;97541.00;;;;5054657;28;20309;-85
2023/02/20 03:12:47;;;;;;;0.77;0.70;;;;;8.60;97540.00;;;;5054605;28;20315;-85
2023/02/20 03:15:38;;;;;;;1.90;1.47;;;;;8.50;97525.00;;;;5054813;28;20674;-85
2023/02/20 03:18:34;;;;;;;2.07;1.87;;;;;8.50;97531.00;;;;5063559;28;20681;-85
2023/02/20 03:21:23;;;;;;;2.80;1.90;;;;;8.70;97532.00;;;;5055588;28;20206;-85
2023/02/20 03:24:14;;;;;;;2.60;2.40;;;;;8.70;97536.00;;;;5048605;28;20224;-84
2023/02/20 03:27:04;;;;;;;3.50;1.50;;;;;8.70;97544.00;;;;5059364;28;20646;-84
2023/02/20 03:29:57;;;;;;;6.37;1.33;;;;;8.80;97540.00;;;;5060499;28;20228;-85
2023/02/20 03:45:23;;;;;;;1.30;1.20;;;;;8.90;97564.00;;;;5069933;28;20257;-85
2023/02/20 03:48:15;;;;;;;2.10;1.53;;;;;8.90;97570.00;;;;5070920;28;20274;-85
2023/02/20 03:51:05;;;;;;;2.77;1.80;;;;;9.00;97577.00;;;;5071559;28;20203;-85
2023/02/20 03:53:54;;;;;;;2.20;1.53;;;;;9.00;97575.00;;;;5045211;28;20201;-84
2023/02/20 03:56:44;;;;;;;1.13;1.00;;;;;8.70;97558.00;;;;5051836;28;20193;-84
2023/02/20 03:59:35;;;;;;;2.07;1.43;;;;;8.80;97571.00;;;;5050566;28;20224;-85
2023/02/20 04:02:29;;;;;;;1.30;1.20;;;;;8.70;97565.00;;;;5062784;28;20208;-85
2023/02/20 04:05:21;;;;;;;1.57;1.37;;;;;8.60;97576.00;;;;5069452;28;20214;-84
2023/02/20 04:08:12;;;;;;;1.73;1.53;;;;;8.70;97578.00;;;;5068752;28;20216;-85
2023/02/20 04:11:05;;;;;;;2.27;1.40;;;;;8.60;97581.00;;;;5071170;28;20250;-85
2023/02/20 04:13:55;;;;;;;2.53;1.53;;;;;8.70;97576.00;;;;5070055;28;20239;-85
2023/02/20 04:16:48;;;;;;;2.73;1.60;;;;;8.40;97585.00;;;;5069193;28;20196;-85
2023/02/20 04:19:38;;;;;;;1.83;1.50;;;;;8.50;97592.00;;;;5068962;28;20219;-85
2023/02/20 04:22:29;;;;;;;1.97;1.77;;;;;8.70;97597.00;;;;5070664;28;20282;-85
2023/02/20 04:25:25;;;;;;;2.70;1.47;;;;;8.70;97594.00;;;;5070056;28;20338;-85
2023/02/20 04:28:15;;;;;;;3.20;2.30;;;;;8.60;97594.00;;;;5069967;28;20231;-85
2023/02/20 04:31:04;;;;;;;2.70;1.83;;;;;8.60;97603.00;;;;5067737;28;20211;-85
2023/02/20 04:33:53;;;;;;;1.97;1.77;;;;;8.90;97599.00;;;;5060119;28;20211;-85
2023/02/20 04:36:43;;;;;;;2.77;1.60;;;;;8.80;97603.00;;;;5062826;28;20200;-85
2023/02/20 04:39:32;;;;;;;4.63;2.83;;;;;8.80;97600.00;;;;5052388;28;20300;-85
2023/02/20 04:42:21;;;;;;;2.83;2.03;;;;;8.70;97595.00;;;;5051163;28;20193;-85
2023/02/20 04:45:10;;;;;;;1.73;1.50;;;;;8.70;97594.00;;;;5052384;28;20672;-85
2023/02/20 04:47:59;;;;;;;3.83;1.87;;;;;8.60;97602.00;;;;5051416;28;20307;-85
2023/02/20 04:50:48;;;;;;;2.13;1.50;;;;;8.70;97598.00;;;;5049205;28;20251;-85
2023/02/20 04:53:39;;;;;;;2.33;1.60;;;;;8.70;97595.00;;;;5068308;28;20198;-85
2023/02/20 04:56:28;;;;;;;1.87;1.60;;;;;8.60;97602.00;;;;5068037;28;20200;-85
2023/02/20 04:59:17;;;;;;;1.63;1.30;;;;;8.50;97598.00;;;;5066079;28;20215;-85
2023/02/20 05:02:06;;;;;;;1.80;1.40;;;;;8.60;97608.00;;;;5062992;28;20207;-86
2023/02/20 05:04:57;;;;;;;2.33;1.10;;;;;8.70;97615.00;;;;5057197;28;20257;-85
2023/02/20 05:07:47;;;;;;;2.70;1.67;;;;;8.60;97612.00;;;;5074712;28;20300;-85
2023/02/20 05:10:37;;;;;;;2.23;2.03;;;;;8.50;97609.00;;;;5082229;28;20681;-85
2023/02/20 05:13:26;;;;;;;1.70;1.60;;;;;8.30;97604.00;;;;5049267;28;20208;-85
2023/02/20 05:16:15;;;;;;;3.20;1.33;;;;;8.60;97601.00;;;;5049315;28;20258;-85
2023/02/20 05:19:04;;;;;;;3.37;2.33;;;;;8.60;97584.00;;;;5048275;28;20221;-86
2023/02/20 05:25:00;;;;;;;2.20;1.70;;;;;8.50;97591.00;;;;5048999;28;20300;-85
2023/02/20 05:27:51;;;;;;;6.90;2.20;;;;;8.40;97586.00;;;;5064774;28;20712;-85
2023/02/20 05:30:40;;;;;;;1.73;1.57;;;;;8.60;97591.00;;;;5065485;28;20593;-85
2023/02/20 05:33:29;;;;;;;1.70;1.60;;;;;8.40;97594.00;;;;5058063;28;20724;-85
2023/02/20 05:36:18;;;;;;;1.83;1.57;;;;;8.20;97590.00;;;;5062788;28;20783;-86
2023/02/20 05:39:07;;;;;;;3.20;1.57;;;;;8.20;97594.00;;;;5070309;28;20333;-86
2023/02/20 05:41:56;;;;;;;1.53;1.43;;;;;8.10;97592.00;;;;5057413;28;20293;-86
2023/02/20 05:44:48;;;;;;;1.77;1.67;;;;;8.10;97591.00;;;;5048993;28;20719;-85
2023/02/20 05:47:38;;;;;;;1.77;1.60;;;;;8.20;97593.00;;;;5047220;28;20236;-85
2023/02/20 05:50:27;;;;;;;2.43;1.70;;;;;8.00;97599.00;;;;5063364;28;20225;-86
2023/02/20 05:53:16;;;;;;;5.97;1.63;;;;;8.30;97611.00;;;;5059016;28;20204;-86
2023/02/20 05:56:05;;;;;;;2.03;1.50;;;;;8.50;97617.00;;;;5073867;28;20199;-86
2023/02/20 05:58:54;;;;;;;3.03;1.93;;;;;8.50;97621.00;;;;5076631;28;20707;-87
2023/02/20 06:01:44;;;;;;;2.50;1.87;;;;;8.20;97615.00;;;;5073501;28;20686;-85
2023/02/20 06:04:33;;;;;;;2.90;2.10;;;;;8.30;97617.00;;;;5072546;28;20993;-86
2023/02/20 06:07:22;;;;;;;3.03;1.80;;;;;8.30;97618.00;;;;5069511;28;20215;-86
2023/02/20 06:10:11;;;;;;;2.17;1.97;;;;;8.30;97613.00;;;;5065102;28;20200;-86
2023/02/20 06:13:01;;;;;;;3.40;2.00;;;;;8.00;97608.00;;;;5064125;28;20208;-86
2023/02/20 06:15:50;;;;;;;3.13;2.47;;;;;8.10;97603.00;;;;5062682;28;20289;-86
2023/02/20 06:18:41;;;;;;;1.53;1.30;;;;;8.20;97609.00;;;;5066126;28;20268;-86
2023/02/20 06:21:30;;;;;;;3.33;2.20;;;;;8.20;97620.00;;;;5064812;28;20461;-86
2023/02/20 06:24:20;;;;;;;7.43;2.13;;;;;8.30;97611.00;;;;5063730;28;20209;-86
2023/02/20 06:27:09;;;;;;;2.93;2.03;;;;;8.30;97607.00;;;;5064656;28;20205;-86
2023/02/20 06:29:58;;;;;;;5.30;2.00;;;;;8.40;97614.00;;;;5073442;28;20223;-86
2023/02/20 06:32:47;;;;;;;2.77;1.83;;;;;8.30;97610.00;;;;5070704;28;20196;-86
2023/02/20 06:35:37;;;;;;;2.43;2.23;;;;;8.20;97624.00;;;;5081101;28;20274;-86
2023/02/20 06:38:26;;;;;;;3.07;1.80;;;;;8.20;97637.00;;;;5056510;28;20303;-86
2023/02/20 06:41:16;;;;;;;2.50;2.30;;;;;8.20;97640.00;;;;5068584;28;20202;-86
2023/02/20 06:44:06;;;;;;;2.23;2.00;;;;;8.30;97632.00;;;;5044183;28;20624;-86
2023/02/20 06:46:57;;;;;;;3.83;2.00;;;;;8.30;97651.00;;;;5070997;28;20204;-86
2023/02/20 06:49:46;;;;;;;3.43;2.03;;;;;8.40;97649.00;;;;5071569;28;20212;-86
2023/02/20 06:52:37;;;;;;;2.77;2.17;;;;;8.50;97654.00;;;;5070959;28;20595;-86
2023/02/20 06:55:26;;;;;;;5.57;1.83;;;;;8.50;97661.00;;;;5072020;28;20278;-86
2023/02/20 06:58:15;;;;;;;2.27;2.07;;;;;8.50;97658.00;;;;5050218;28;20231;-86
2023/02/20 07:01:04;;;;;;;2.33;2.10;;;;;7.90;97640.00;;;;5057097;28;20212;-86
2023/02/20 07:03:54;;;;;;;2.37;2.10;;;;;7.70;97642.00;;;;5069195;28;20206;-86
2023/02/20 07:06:43;;;;;;;5.03;2.40;;;;;7.70;97641.00;;;;5062109;28;20204;-86
2023/02/20 07:09:33;;;;;;;4.07;2.57;;;;;7.50;97642.00;;;;5063572;28;20220;-86
2023/02/20 07:12:22;;;;;;;2.87;2.27;;;;;7.60;97640.00;;;;5059825;28;20567;-86
2023/02/20 07:15:12;;;;;;;3.00;2.27;;;;;7.60;97630.00;;;;5059816;28;20196;-86
2023/02/20 07:18:01;;;;;;;3.63;2.17;;;;;7.50;97634.00;;;;5057102;28;20622;-86
2023/02/20 07:20:50;;;;;;;7.40;2.73;;;;;7.30;97632.00;;;;5061290;28;20196;-86
2023/02/20 07:23:41;;;;;;;1.67;1.57;;;;;7.30;97629.00;;;;5064583;28;20202;-86
2023/02/20 07:26:32;;;;;;;2.43;2.23;;;;;7.80;97634.00;;;;5069526;28;20203;-86
2023/02/20 07:29:21;;;;;;;3.97;2.17;;;;;7.70;97632.00;;;;5061356;28;20286;-86
2023/02/20 07:32:10;;;;;;;4.70;2.40;;;;;8.20;97638.00;;;;5061635;28;20211;-85
2023/02/20 07:34:59;;;;;;;3.93;1.93;;;;;8.20;97636.00;;;;5078742;28;20203;-85
2023/02/20 07:37:53;;;;;;;3.17;2.67;;;;;8.20;97639.00;;;;5055076;28;20192;-86
2023/02/20 07:40:43;;;;;;;3.80;2.27;;;;;8.60;97638.00;;;;5069926;28;20214;-86
2023/02/20 07:43:33;;;;;;;4.27;2.90;;;;;8.90;97631.00;;;;5064047;28;20569;-86
2023/02/20 07:46:22;;;;;;;6.43;3.47;;;;;9.00;97626.00;;;;5068704;28;20625;-86
2023/02/20 07:49:11;;;;;;;2.53;2.33;;;;;8.60;97624.00;;;;5068103;28;20720;-85
2023/02/20 07:52:00;;;;;;;6.30;2.80;;;;;9.00;97617.00;;;;5068701;28;20625;-86
2023/02/20 07:54:49;;;;;;;4.63;2.37;;;;;9.10;97627.00;;;;5050796;28;20197;-85
2023/02/20 07:57:39;;;;;;;2.30;2.10;;;;;8.90;97624.00;;;;5057778;28;20415;-85
2023/02/20 08:00:29;;;;;;;4.47;2.53;;;;;8.80;97624.00;;;;5074693;28;20199;-86
2023/02/20 08:03:18;;;;;;;3.23;2.23;;;;;8.80;97618.00;;;;5062881;28;20235;-86
2023/02/20 08:06:07;;;;;;;3.37;2.87;;;;;8.50;97608.00;;;;5067458;28;20619;-86
2023/02/20 08:08:59;;;;;;;4.07;2.60;;;;;8.90;97598.00;;;;5069136;28;20717;-86
2023/02/20 08:11:48;;;;;;;5.80;2.40;;;;;9.00;97608.00;;;;5060722;28;20200;-86
2023/02/20 08:14:37;;;;;;;4.47;2.60;;;;;9.00;97602.00;;;;5065520;28;20204;-86
2023/02/20 08:17:28;;;;;;;3.90;2.53;;;;;9.10;97599.00;;;;5063136;28;20222;-86
2023/02/20 08:20:32;;;;;;;2.60;2.40;;;;;9.30;97595.00;;;;5078015;28;20359;-86
2023/02/20 08:23:22;;;;;;;4.50;2.67;;;;;9.10;97596.00;;;;5081263;28;20203;-86
2023/02/20 08:26:12;;;;;;;3.40;2.53;;;;;9.30;97588.00;;;;5072369;28;20210;-85
2023/02/20 08:29:01;;;;;;;2.97;2.67;;;;;9.40;97579.00;;;;5053033;28;20268;-86
2023/02/20 08:31:50;;;;;;;3.03;2.73;;;;;9.50;97575.00;;;;5066418;28;20628;-85
2023/02/20 08:34:41;;;;;;;2.07;1.83;;;;;9.60;97566.00;;;;5060186;28;20197;-85
2023/02/20 08:37:30;;;;;;;3.10;2.30;;;;;10.20;97555.00;;;;5063906;28;20564;-86
2023/02/20 08:40:19;;;;;;;4.47;2.87;;;;;10.00;97555.00;;;;5066175;28;20215;-86
2023/02/20 08:43:08;;;;;;;5.30;3.90;;;;;10.60;97567.00;;;;5073860;28;20694;-86
2023/02/20 08:45:57;;;;;;;7.80;4.20;;;;;11.00;97563.00;;;;5058202;28;20196;-86
2023/02/20 08:48:46;;;;;;;6.30;3.97;;;;;10.80;97556.00;;;;5065234;28;20230;-85
2023/02/20 08:51:36;;;;;;;4.43;3.40;;;;;11.20;97565.00;;;;5062414;28;20200;-85
2023/02/20 08:54:25;;;;;;;3.53;2.83;;;;;11.50;97550.00;;;;5074037;28;20215;-86
2023/02/20 08:57:15;;;;;;;3.17;2.53;;;;;11.80;97539.00;;;;5082225;28;20618;-86
2023/02/20 09:00:06;;;;;;;3.43;2.90;;;;;11.80;97540.00;;;;5063110;28;20219;-86
2023/02/20 09:02:55;;;;;;;3.70;2.43;;;;;11.70;97540.00;;;;5057567;28;20311;-85
2023/02/20 09:05:45;;;;;;;4.37;3.20;;;;;12.10;97539.00;;;;5069230;28;20230;-85
2023/02/20 09:08:35;;;;;;;5.70;2.87;;;;;12.30;97527.00;;;;5074549;28;20224;-86
2023/02/20 09:11:25;;;;;;;3.13;2.63;;;;;12.50;97527.00;;;;5068091;28;20211;-86
2023/02/20 09:14:14;;;;;;;4.30;3.10;;;;;12.70;97532.00;;;;5072159;28;20273;-86
2023/02/20 09:17:03;;;;;;;3.27;2.33;;;;;12.80;97527.00;;;;5058594;28;20208;-87
2023/02/20 09:19:52;;;;;;;3.10;2.47;;;;;13.00;97525.00;;;;5070701;28;20219;-85
2023/02/20 09:22:42;;;;;;;3.57;2.90;;;;;13.20;97525.00;;;;5066942;28;20207;-86
2023/02/20 09:25:32;;;;;;;4.20;3.00;;;;;13.40;97524.00;;;;5068316;28;20202;-86
2023/02/20 09:28:21;;;;;;;5.47;2.50;;;;;13.70;97527.00;;;;5069969;28;20623;-86
2023/02/20 09:31:11;;;;;;;4.93;3.73;;;;;13.90;97509.00;;;;5077750;28;20693;-86
2023/02/20 09:34:05;;;;;;;3.43;2.67;;;;;14.00;97499.00;;;;5079295;28;20211;-86
2023/02/20 09:36:57;;;;;;;5.23;3.10;;;;;14.20;97488.00;;;;5072359;28;20196;-86
2023/02/20 09:39:46;;;;;;;5.83;2.57;;;;;14.40;97489.00;;;;5054777;28;20220;-86
2023/02/20 09:42:43;;;;;;;2.60;2.27;;;;;14.30;97491.00;;;;5054956;28;20215;-86
2023/02/20 09:45:33;;;;;;;2.70;2.50;;;;;14.70;97483.00;;;;5071317;28;20207;-86
2023/02/20 09:48:32;;;;;;;3.13;2.47;;;;;14.90;97494.00;;;;5071799;28;20223;-86
2023/02/20 09:51:23;;;;;;;3.63;2.40;;;;;14.90;97489.00;;;;5066743;28;20201;-86
2023/02/20 09:54:14;;;;;;;4.90;2.63;;;;;14.70;97479.00;;;;5070603;28;20204;-86
2023/02/20 09:57:05;;;;;;;2.93;2.50;;;;;14.60;97477.00;;;;5077101;28;20203;-86
2023/02/20 09:59:58;;;;;;;2.43;2.20;;;;;15.20;97474.00;;;;5057677;28;20225;-87
2023/02/20 10:02:55;;;;;;;4.53;2.30;;;;;15.60;97464.00;;;;5069991;28;20209;-87
2023/02/20 10:05:45;;;;;;;2.53;2.17;;;;;15.50;97459.00;;;;5074831;28;20208;-86
2023/02/20 10:08:35;;;;;;;7.10;2.80;;;;;15.80;97459.00;;;;5076066;28;20352;-86
2023/02/20 10:11:49;;;;;;;2.53;1.90;;;;;15.90;97455.00;;;;5062707;28;20259;-87
2023/02/20 10:14:57;;;;;;;3.60;2.30;;;;;15.20;97455.00;;;;5079521;28;20283;-87
2023/02/20 10:17:52;;;;;;;6.60;2.27;;;;;15.70;97466.00;;;;5081656;28;20719;-86
2023/02/20 10:20:49;;;;;;;3.90;2.23;;;;;16.50;97464.00;;;;5074005;28;20205;-86
2023/02/20 10:23:47;;;;;;;2.40;1.80;;;14.30;93.50;16.70;97460.00;;;;5069083;28;20273;-85
2023/02/20 10:26:50;;;;;;;4.90;1.90;;;14.30;93.50;16.80;97458.00;;;;5067569;28;20203;-87
2023/02/20 10:29:40;;;;;;;2.33;1.50;;;14.50;92.20;16.40;97466.00;;;;5070669;28;20298;-86
2023/02/20 10:32:36;;;;;;;2.00;1.47;;;14.60;90.70;17.40;97468.00;;;;5064574;28;20570;-86
2023/02/20 10:35:33;;;;;;;1.63;1.50;;;14.70;90.90;17.80;97470.00;;;;5086458;28;20203;-86
2023/02/20 10:38:29;;;;;;;3.40;1.80;;;15.10;91.00;17.70;97462.00;;;;5076663;28;20224;-87
2023/02/20 10:41:25;;;;;;;3.57;1.90;;;15.40;89.60;16.80;97449.00;;;;5051103;28;20426;-88
2023/02/20 10:44:21;;;;;;;2.40;2.20;;;15.60;87.10;18.30;97450.00;;;;5064316;28;20208;-88
2023/02/20 10:47:16;;;;;;;3.53;1.47;;;15.70;86.50;18.90;97461.00;;;;5067516;28;20203;-87
2023/02/20 10:50:13;;;;;;;2.57;1.80;;;16.10;86.20;18.20;97463.00;;;;5050273;28;20221;-87
2023/02/20 10:53:11;;;;;;;3.13;2.07;;;15.40;82.30;18.00;97457.00;;;;5068881;28;20676;-86
2023/02/20 10:56:07;;;;;;;2.57;1.93;;;16.30;81.90;17.70;97455.00;;;;5067792;28;20207;-87
2023/02/20 10:59:04;;;;;;;1.80;1.63;;;16.30;81.90;17.10;97465.00;;;;5077197;28;20231;-87
2023/02/20 11:01:57;;;;;;;2.53;1.80;;;16.00;81.70;16.70;97460.00;;;;5072848;28;20585;-87
2023/02/20 11:04:53;;;;;;;2.83;1.63;;;15.70;82.20;16.80;97443.00;;;;5080539;28;20203;-87
2023/02/20 11:07:43;;;;;;;3.03;2.00;;;15.50;83.40;17.80;97441.00;;;;5079303;28;20610;-87
2023/02/20 11:10:34;;;;;;;5.53;2.63;;;15.50;84.20;18.10;97436.00;;;;5065847;28;20220;-87
2023/02/20 11:13:25;;;;;;;3.30;2.10;;;15.70;85.00;17.00;97421.00;;;;5069307;28;20203;-87
2023/02/20 11:16:24;;;;;;;3.20;1.37;;;15.70;82.10;16.60;97438.00;;;;5068606;28;20199;-87
2023/02/20 11:19:21;;;;;;;2.00;1.40;;;15.60;80.10;16.40;97420.00;;;;5062044;28;20232;-87
2023/02/20 11:22:11;;;;;;;3.17;1.73;;;15.30;80.40;16.50;97409.00;;;;5060941;28;20204;-87
2023/02/20 11:25:17;;;;;;;2.67;1.70;;;15.10;81.90;16.90;97398.00;;;;5071015;28;20235;-87
2023/02/20 11:28:17;;;;;;;1.90;1.63;;;15.10;82.20;17.20;97402.00;;;;5069590;28;20247;-87
2023/02/20 11:31:08;;;;;;;4.17;1.70;;;15.30;81.60;17.60;97397.00;;;;5064887;28;20270;-87
2023/02/20 11:33:58;;;;;;;2.67;1.80;;;15.40;81.60;17.70;97382.00;;;;5074428;28;20210;-87
2023/02/20 11:36:49;;;;;;;2.23;1.80;;;15.60;81.70;17.70;97382.00;;;;5066283;28;20294;-87
2023/02/20 11:39:37;;;;;;;1.47;1.37;;;15.60;81.80;18.00;97354.00;;;;5069563;28;20224;-87
2023/02/20 11:42:34;;;;;;;3.67;1.70;;;15.80;80.70;18.80;97336.00;;;;5073235;28;20193;-87
2023/02/20 11:45:25;;;;;;;2.53;1.33;;;16.20;79.60;18.90;97321.00;;;;5068399;28;20188;-88
2023/02/20 11:48:16;;;;;;;2.00;1.37;;;16.70;77.60;19.00;97329.00;;;;5067859;28;20219;-88
2023/02/20 11:51:05;;;;;;;1.33;1.20;;;17.10;74.70;19.30;97323.00;;;;5069111;28;20227;-88
2023/02/20 11:54:14;;;;;;;3.63;1.70;;;17.30;73.90;19.80;97317.00;;;;5067893;28;20211;-89
2023/02/20 11:57:05;;;;;;;1.70;1.30;;;;;21.00;97325.00;;;;5066744;28;20199;-88
2023/02/20 12:00:13;;;;;;;3.17;1.80;;;;;21.90;97347.00;;;;5067745;28;20600;-89
2023/02/20 12:03:12;;;;;;;2.77;1.87;;;;;22.40;97320.00;;;;5059303;28;20259;-89
2023/02/20 12:06:03;;;;;;;1.50;1.40;;;;;22.80;97305.00;;;;5058386;28;20203;-88
2023/02/20 12:08:56;;;;;;;2.63;2.10;;;;;22.60;97302.00;;;;5054841;28;20232;-90
2023/02/20 12:11:46;;;;;;;3.07;1.60;;;;;22.50;97293.00;;;;5054712;28;21006;-89
2023/02/20 12:14:35;;;;;;;3.07;1.40;;;;;23.10;97334.00;;;;5054307;28;20204;-88
2023/02/20 12:17:33;;;;;;;4.13;2.30;;;;;23.60;97286.00;;;;5058763;28;20201;-88
2023/02/20 12:20:27;;;;;;;1.80;1.13;;;21.10;60.80;22.50;97283.00;;;;5057050;28;20199;-88
2023/02/20 12:23:27;;;;;;;3.07;1.30;;;21.00;59.50;23.90;97285.00;;;;5055116;28;20200;-88
2023/02/20 12:26:43;;;;;;;2.77;1.40;;;21.20;61.20;24.60;97285.00;;;;5055454;28;20201;-88
2023/02/20 12:29:43;;;;;;;2.33;1.40;;;21.70;60.30;25.20;97274.00;;;;5058247;28;20226;-86
2023/02/20 12:32:48;;;;;;;1.87;1.40;;;22.30;58.50;25.90;97265.00;;;;5054642;28;20201;-86
2023/02/20 12:35:44;;;;;;;3.43;1.40;;;22.80;57.70;26.20;97278.00;;;;5054734;28;20530;-87
2023/02/20 12:38:43;;;;;;;1.80;1.17;;;23.30;56.70;25.60;97275.00;;;;5048716;28;20781;-87
2023/02/20 12:42:04;;;;;;;4.38;1.50;;;23.60;54.20;25.80;97259.00;;;;5057509;28;20481;-86
2023/02/20 12:45:12;;;;;;;2.03;1.10;;;23.80;53.90;26.40;97256.00;;;;5054807;28;20224;-86
2023/02/20 12:48:23;;;;;;;1.38;1.13;;;23.90;53.30;26.60;97257.00;;;;5036311;28;20227;-87
2023/02/20 12:51:24;;;;;;;2.20;1.23;;;24.20;52.70;27.40;97244.00;;;;5051562;28;20215;-86
2023/02/20 12:54:30;;;;;;;1.87;1.50;;;24.40;52.00;27.30;97247.00;;;;5049161;28;20221;-86
2023/02/20 12:57:39;;;;;;;1.70;1.02;;;24.90;51.10;25.30;97271.00;;;;5053774;28;20610;-87
2023/02/20 13:00:35;;;;;;;3.50;1.20;;;24.60;49.60;24.40;97233.00;;;;5051455;28;20207;-86
2023/02/20 13:03:43;;;;;;;2.97;0.82;;;24.00;48.70;26.00;97240.00;;;;5049685;28;20224;-87
2023/02/20 13:06:38;;;;;;;2.27;1.50;;;24.00;49.50;23.60;97234.00;;;;5052721;28;20207;-88
2023/02/20 13:09:33;;;;;;;1.73;1.07;;;23.40;49.10;25.20;97259.00;;;;5056104;28;20710;-87
2023/02/20 13:12:22;;;;;;;1.57;1.13;;;23.50;49.60;22.70;97247.00;;;;5049222;28;21554;-88
2023/02/20 13:15:32;;;;;;;2.60;1.10;;;23.00;49.40;25.10;97252.00;;;;5048151;28;20209;-87
2023/02/20 13:18:31;;;;;;;2.03;0.83;;;22.90;50.30;25.50;97256.00;;;;5050810;28;20227;-87
2023/02/20 13:21:25;;;;;;;1.80;1.33;;;23.10;50.50;25.70;97242.00;;;;5056574;28;20236;-87
2023/02/20 13:24:32;;;;;;;1.37;1.23;;;23.40;49.70;25.50;97235.00;;;;5055112;28;20202;-86
2023/02/20 13:27:30;;;;;;;2.23;0.80;;;23.50;50.00;24.00;97223.00;;;;5050865;28;20214;-87
2023/02/20 13:30:22;;;;;;;3.53;1.50;;;23.20;49.40;25.20;97221.00;;;;5058755;28;20221;-86
2023/02/20 13:33:22;;;;;;;1.13;1.03;;;23.20;50.10;23.70;97227.00;;;;5053782;28;20204;-89
2023/02/20 13:36:41;;;;;;;2.60;1.30;;;23.20;49.10;20.50;97254.00;;;;5056460;28;20210;-87
2023/02/20 13:39:43;;;;;;;1.13;0.93;;;21.60;49.90;20.50;97246.00;;;;5055631;28;20221;-86
2023/02/20 13:42:35;;;;;;;1.47;1.10;;;20.50;50.70;20.50;97244.00;;;;5050126;28;20235;-85
2023/02/20 13:45:40;;;;;;;1.47;1.10;;;19.80;51.90;21.20;97229.00;;;;5056479;28;20200;-85
2023/02/20 13:48:44;;;;;;;1.77;1.10;;;19.50;52.70;20.70;97231.00;;;;5052411;28;20227;-88
2023/02/20 13:51:35;;;;;;;2.30;1.00;;;19.20;53.80;20.50;97235.00;;;;5057310;28;20196;-87
2023/02/20 13:54:28;;;;;;;2.17;1.97;;;18.90;54.10;20.80;97185.00;;;;5058280;28;20201;-87
2023/02/20 13:57:19;;;;;;;3.80;2.37;;;18.80;54.40;22.10;97197.00;;;;5045389;28;20216;-87
2023/02/20 14:00:31;;;;;;;2.23;1.90;;;19.10;55.20;21.80;97209.00;;;;5052455;28;20204;-87
2023/02/20 14:03:24;;;;;;;1.43;1.00;;;19.40;54.40;21.00;97211.00;;;;5054105;28;20199;-87
2023/02/20 14:06:15;;;;;;;3.47;1.40;;;19.40;53.50;21.30;97206.00;;;;5054723;28;20207;-87
2023/02/20 14:09:10;;;;;;;1.63;1.13;;;19.30;53.70;21.10;97199.00;;;;5057259;28;20253;-87
2023/02/20 14:12:08;;;;;;;2.33;1.10;;;19.20;54.40;21.30;97181.00;;;;5058312;28;20219;-87
2023/02/20 14:14:57;;;;;;;2.23;1.57;;;19.20;55.40;20.60;97195.00;;;;5052762;28;20204;-87
2023/02/20 14:17:46;;;;;;;2.83;1.20;;;19.30;55.10;19.90;97198.00;;;;5048466;28;20583;-88
2023/02/20 14:20:37;;;;;;;1.50;1.10;;;19.00;55.60;19.80;97185.00;;;;5058378;28;20214;-87